sensor_id;sensor_type;location;lat;lon;timestamp;pressure;altitude;pressure_sealevel;temperature;humidity
45864;BME280;31579;52.354;16.974;2023-04-30T00:00:20;387.3;;;-146.1;100.0
45864;BME280;31579;52.354;16.974;2023-04-30T00:01:24;387.1;;;-146.1;100.0
45864;BME280;31579;52.354;16.974;2023-04-30T00:02:28;387.5;;;-146.1;100.0
45864;BME280;31579;52.354;16.974;2023-04-30T00:03:32;386.8;;;-146.1;100.0
45864;BME280;31579;52.354;16.974;2023-04-30T00:04:36;386.0;;;-146.1;100.0
45864;BME280;31579;52.354;16.974;2023-04-30T00:05:40;385.1;;;-146.1;100.0
45864;BME280;31579;52.354;16.974;2023-04-30T00:06:44;384.1;;;-146.1;100.0
45864;BME280;31579;52.354;16.974;2023-04-30T00:07:48;382.2;;;-146.1;100.0
45864;BME280;31579;52.354;16.974;2023-04-30T00:08:52;382.0;;;-146.1;100.0
45864;BME280;31579;52.354;16.974;2023-04-30T00:09:56;381.0;;;-146.1;100.0
45864;BME280;31579;52.354;16.974;2023-04-30T00:11:00;380.8;;;-146.1;100.0
45864;BME280;31579;52.354;16.974;2023-04-30T00:12:03;405.7;;;-146.1;100.0
45864;BME280;31579;52.354;16.974;2023-04-30T00:13:05;426.1;;;-146.1;100.0
45864;BME280;31579;52.354;16.974;2023-04-30T00:14:09;406.3;;;-146.1;100.0
45864;BME280;31579;52.354;16.974;2023-04-30T00:15:13;400.9;;;-146.1;100.0
45864;BME280;31579;52.354;16.974;2023-04-30T00:16:17;397.7;;;-146.1;100.0
45864;BME280;31579;52.354;16.974;2023-04-30T00:17:21;393.5;;;-146.1;100.0
45864;BME280;31579;52.354;16.974;2023-04-30T00:18:25;390.6;;;-146.1;100.0
45864;BME280;31579;52.354;16.974;2023-04-30T00:19:29;390.2;;;-146.1;100.0
45864;BME280;31579;52.354;16.974;2023-04-30T00:20:33;389.5;;;-146.1;100.0
45864;BME280;31579;52.354;16.974;2023-04-30T00:21:37;387.5;;;-146.1;100.0
45864;BME280;31579;52.354;16.974;2023-04-30T00:22:41;386.5;;;-146.1;100.0
45864;BME280;31579;52.354;16.974;2023-04-30T00:23:45;386.4;;;-146.1;100.0
45864;BME280;31579;52.354;16.974;2023-04-30T00:24:49;385.6;;;-146.1;100.0
45864;BME280;31579;52.354;16.974;2023-04-30T00:25:53;385.0;;;-146.1;100.0
45864;BME280;31579;52.354;16.974;2023-04-30T00:26:57;384.1;;;-146.1;100.0
45864;BME280;31579;52.354;16.974;2023-04-30T00:28:01;381.5;;;-146.1;100.0
45864;BME280;31579;52.354;16.974;2023-04-30T00:29:06;382.3;;;-146.1;100.0
45864;BME280;31579;52.354;16.974;2023-04-30T00:30:10;382.6;;;-146.1;100.0
45864;BME280;31579;52.354;16.974;2023-04-30T00:31:14;383.2;;;-146.1;100.0
45864;BME280;31579;52.354;16.974;2023-04-30T00:32:18;382.6;;;-146.1;100.0
45864;BME280;31579;52.354;16.974;2023-04-30T00:33:22;380.8;;;-146.1;100.0
45864;BME280;31579;52.354;16.974;2023-04-30T00:34:26;381.0;;;-146.1;100.0
45864;BME280;31579;52.354;16.974;2023-04-30T00:35:30;381.0;;;-146.1;100.0
45864;BME280;31579;52.354;16.974;2023-04-30T00:36:34;382.7;;;-146.1;100.0
45864;BME280;31579;52.354;16.974;2023-04-30T00:37:38;383.5;;;-146.1;100.0
45864;BME280;31579;52.354;16.974;2023-04-30T00:38:42;385.3;;;-146.1;100.0
45864;BME280;31579;52.354;16.974;2023-04-30T00:39:46;385.5;;;-146.1;100.0
45864;BME280;31579;52.354;16.974;2023-04-30T00:40:50;386.0;;;-146.1;100.0
45864;BME280;31579;52.354;16.974;2023-04-30T00:41:54;386.4;;;-146.1;100.0
45864;BME280;31579;52.354;16.974;2023-04-30T00:42:58;386.8;;;-146.1;100.0
45864;BME280;31579;52.354;16.974;2023-04-30T00:44:00;431.3;;;-146.1;100.0
45864;BME280;31579;52.354;16.974;2023-04-30T00:45:03;438.9;;;-146.1;100.0
45864;BME280;31579;52.354;16.974;2023-04-30T00:46:05;443.6;;;-146.1;100.0
45864;BME280;31579;52.354;16.974;2023-04-30T00:47:09;427.8;;;-146.1;100.0
45864;BME280;31579;52.354;16.974;2023-04-30T00:48:13;422.8;;;-146.1;100.0
45864;BME280;31579;52.354;16.974;2023-04-30T00:49:17;417.5;;;-146.1;100.0
45864;BME280;31579;52.354;16.974;2023-04-30T00:50:21;413.5;;;-146.1;100.0
45864;BME280;31579;52.354;16.974;2023-04-30T00:51:25;409.8;;;-146.1;100.0
45864;BME280;31579;52.354;16.974;2023-04-30T00:52:29;406.3;;;-146.1;100.0
45864;BME280;31579;52.354;16.974;2023-04-30T00:53:33;403.6;;;-146.1;100.0
45864;BME280;31579;52.354;16.974;2023-04-30T00:54:38;402.9;;;-146.1;100.0
45864;BME280;31579;52.354;16.974;2023-04-30T00:55:42;400.6;;;-146.1;100.0
45864;BME280;31579;52.354;16.974;2023-04-30T00:56:46;397.7;;;-146.1;100.0
45864;BME280;31579;52.354;16.974;2023-04-30T00:57:50;394.9;;;-146.1;100.0
45864;BME280;31579;52.354;16.974;2023-04-30T00:58:54;391.6;;;-146.1;100.0
45864;BME280;31579;52.354;16.974;2023-04-30T00:59:58;388.8;;;-146.1;100.0
45864;BME280;31579;52.354;16.974;2023-04-30T01:01:00;431.1;;;-146.1;100.0
45864;BME280;31579;52.354;16.974;2023-04-30T01:02:03;438.6;;;-146.1;100.0
45864;BME280;31579;52.354;16.974;2023-04-30T01:03:15;380.5;;;-146.1;100.0
45864;BME280;31579;52.354;16.974;2023-04-30T01:04:19;392.8;;;-146.1;100.0
45864;BME280;31579;52.354;16.974;2023-04-30T01:05:24;392.2;;;-146.1;100.0
45864;BME280;31579;52.354;16.974;2023-04-30T01:06:28;387.8;;;-146.1;100.0
45864;BME280;31579;52.354;16.974;2023-04-30T01:07:33;384.4;;;-146.1;100.0
45864;BME280;31579;52.354;16.974;2023-04-30T01:08:36;380.8;;;-146.1;100.0
45864;BME280;31579;52.354;16.974;2023-04-30T01:09:40;376.5;;;-146.1;100.0
45864;BME280;31579;52.354;16.974;2023-04-30T01:16:12;371.2;;;-146.1;100.0
45864;BME280;31579;52.354;16.974;2023-04-30T01:17:14;368.3;;;-146.1;100.0
45864;BME280;31579;52.354;16.974;2023-04-30T01:18:15;367.3;;;-146.1;100.0
45864;BME280;31579;52.354;16.974;2023-04-30T01:19:24;363.2;;;-146.1;100.0
45864;BME280;31579;52.354;16.974;2023-04-30T01:20:21;356.5;;;-146.1;100.0
45864;BME280;31579;52.354;16.974;2023-04-30T01:21:25;352.3;;;-146.1;100.0
45864;BME280;31579;52.354;16.974;2023-04-30T01:22:34;346.9;;;-146.1;100.0
45864;BME280;31579;52.354;16.974;2023-04-30T01:27:56;329.4;;;-146.1;100.0
45864;BME280;31579;52.354;16.974;2023-04-30T01:28:53;326.8;;;-146.1;100.0
45864;BME280;31579;52.354;16.974;2023-04-30T01:29:57;322.0;;;-146.1;100.0
45864;BME280;31579;52.354;16.974;2023-04-30T01:31:01;318.3;;;-146.1;100.0
45864;BME280;31579;52.354;16.974;2023-04-30T01:32:05;316.4;;;-146.1;100.0
45864;BME280;31579;52.354;16.974;2023-04-30T01:33:09;315.0;;;-146.1;100.0
45864;BME280;31579;52.354;16.974;2023-04-30T01:34:14;316.6;;;-146.1;100.0
45864;BME280;31579;52.354;16.974;2023-04-30T01:35:18;312.4;;;-146.1;100.0
45864;BME280;31579;52.354;16.974;2023-04-30T01:37:32;309.1;;;-146.1;100.0
45864;BME280;31579;52.354;16.974;2023-04-30T01:40:47;293.2;;;-146.1;100.0
45864;BME280;31579;52.354;16.974;2023-04-30T01:42:52;283.8;;;-146.1;100.0
45864;BME280;31579;52.354;16.974;2023-04-30T01:47:05;267.8;;;-146.1;100.0
45864;BME280;31579;52.354;16.974;2023-04-30T01:48:13;268.9;;;-146.1;100.0
45864;BME280;31579;52.354;16.974;2023-04-30T01:51:24;263.7;;;-146.1;100.0
45864;BME280;31579;52.354;16.974;2023-04-30T01:53:32;264.5;;;-146.1;100.0
45864;BME280;31579;52.354;16.974;2023-04-30T01:54:35;262.1;;;-146.1;100.0
45864;BME280;31579;52.354;16.974;2023-04-30T01:55:40;259.9;;;-146.1;100.0
45864;BME280;31579;52.354;16.974;2023-04-30T01:56:42;259.6;;;-146.1;100.0
45864;BME280;31579;52.354;16.974;2023-04-30T01:57:47;255.2;;;-146.1;100.0
45864;BME280;31579;52.354;16.974;2023-04-30T01:58:47;255.0;;;-146.1;100.0
45864;BME280;31579;52.354;16.974;2023-04-30T01:59:51;255.0;;;-146.1;100.0
45864;BME280;31579;52.354;16.974;2023-04-30T02:00:55;254.0;;;-146.1;100.0
45864;BME280;31579;52.354;16.974;2023-04-30T02:01:59;253.6;;;-146.1;100.0
45864;BME280;31579;52.354;16.974;2023-04-30T02:03:03;253.2;;;-146.1;100.0
45864;BME280;31579;52.354;16.974;2023-04-30T02:04:14;86.9;;;-146.1;100.0
45864;BME280;31579;52.354;16.974;2023-04-30T02:05:18;145.1;;;-146.1;100.0
45864;BME280;31579;52.354;16.974;2023-04-30T02:06:24;163.4;;;-146.1;100.0
45864;BME280;31579;52.354;16.974;2023-04-30T02:07:42;177.5;;;-146.1;100.0
45864;BME280;31579;52.354;16.974;2023-04-30T02:08:31;189.6;;;-146.1;100.0
45864;BME280;31579;52.354;16.974;2023-04-30T02:09:35;200.2;;;-146.1;100.0
45864;BME280;31579;52.354;16.974;2023-04-30T02:10:39;207.9;;;-146.1;100.0
45864;BME280;31579;52.354;16.974;2023-04-30T02:11:43;215.8;;;-146.1;100.0
45864;BME280;31579;52.354;16.974;2023-04-30T02:12:47;223.3;;;-146.1;100.0
45864;BME280;31579;52.354;16.974;2023-04-30T02:13:51;230.7;;;-146.1;100.0
45864;BME280;31579;52.354;16.974;2023-04-30T02:14:55;237.3;;;-146.1;100.0
45864;BME280;31579;52.354;16.974;2023-04-30T02:15:59;243.3;;;-146.1;100.0
45864;BME280;31579;52.354;16.974;2023-04-30T02:17:03;247.5;;;-146.1;100.0
45864;BME280;31579;52.354;16.974;2023-04-30T02:18:07;254.6;;;-146.1;100.0
45864;BME280;31579;52.354;16.974;2023-04-30T02:19:11;260.1;;;-146.1;100.0
45864;BME280;31579;52.354;16.974;2023-04-30T02:20:15;262.2;;;-146.1;100.0
45864;BME280;31579;52.354;16.974;2023-04-30T02:21:19;264.5;;;-146.1;100.0
45864;BME280;31579;52.354;16.974;2023-04-30T02:22:23;267.0;;;-146.1;100.0
45864;BME280;31579;52.354;16.974;2023-04-30T02:23:27;267.2;;;-146.1;100.0
45864;BME280;31579;52.354;16.974;2023-04-30T02:24:23;331.8;;;-146.1;100.0
45864;BME280;31579;52.354;16.974;2023-04-30T02:25:27;282.9;;;-146.1;100.0
45864;BME280;31579;52.354;16.974;2023-04-30T02:26:31;280.2;;;-146.1;100.0
45864;BME280;31579;52.354;16.974;2023-04-30T02:27:36;283.1;;;-146.1;100.0
45864;BME280;31579;52.354;16.974;2023-04-30T02:28:41;284.5;;;-146.1;100.0
45864;BME280;31579;52.354;16.974;2023-04-30T02:29:46;284.4;;;-146.1;100.0
45864;BME280;31579;52.354;16.974;2023-04-30T02:30:50;278.7;;;-146.1;100.0
45864;BME280;31579;52.354;16.974;2023-04-30T02:31:56;274.1;;;-146.1;100.0
45864;BME280;31579;52.354;16.974;2023-04-30T02:32:59;274.8;;;-146.1;100.0
45864;BME280;31579;52.354;16.974;2023-04-30T02:34:01;418.1;;;-146.1;100.0
45864;BME280;31579;52.354;16.974;2023-04-30T02:35:06;362.5;;;-146.1;100.0
45864;BME280;31579;52.354;16.974;2023-04-30T02:36:10;343.9;;;-146.1;100.0
45864;BME280;31579;52.354;16.974;2023-04-30T02:37:14;327.6;;;-146.1;100.0
45864;BME280;31579;52.354;16.974;2023-04-30T02:38:19;212.6;;;-146.1;100.0
45864;BME280;31579;52.354;16.974;2023-04-30T02:39:22;367.6;;;-146.1;100.0
45864;BME280;31579;52.354;16.974;2023-04-30T02:40:26;303.4;;;-146.1;100.0
45864;BME280;31579;52.354;16.974;2023-04-30T02:41:30;291.0;;;-146.1;100.0
45864;BME280;31579;52.354;16.974;2023-04-30T02:42:34;281.9;;;-146.1;100.0
45864;BME280;31579;52.354;16.974;2023-04-30T02:43:38;275.2;;;-146.1;100.0
45864;BME280;31579;52.354;16.974;2023-04-30T02:44:42;271.1;;;-146.1;100.0
45864;BME280;31579;52.354;16.974;2023-04-30T02:45:46;266.7;;;-146.1;100.0
45864;BME280;31579;52.354;16.974;2023-04-30T02:46:50;263.7;;;-146.1;100.0
45864;BME280;31579;52.354;16.974;2023-04-30T02:47:54;262.3;;;-146.1;100.0
45864;BME280;31579;52.354;16.974;2023-04-30T02:48:58;261.0;;;-146.1;100.0
45864;BME280;31579;52.354;16.974;2023-04-30T02:50:02;260.5;;;-146.1;100.0
45864;BME280;31579;52.354;16.974;2023-04-30T02:51:06;259.4;;;-146.1;100.0
45864;BME280;31579;52.354;16.974;2023-04-30T02:52:10;258.9;;;-146.1;100.0
45864;BME280;31579;52.354;16.974;2023-04-30T02:53:14;258.7;;;-146.1;100.0
45864;BME280;31579;52.354;16.974;2023-04-30T02:54:19;171.9;;;-146.1;100.0
45864;BME280;31579;52.354;16.974;2023-04-30T02:55:24;218.6;;;-146.1;100.0
45864;BME280;31579;52.354;16.974;2023-04-30T02:56:28;227.1;;;-146.1;100.0
45864;BME280;31579;52.354;16.974;2023-04-30T02:57:33;235.5;;;-146.1;100.0
45864;BME280;31579;52.354;16.974;2023-04-30T02:58:37;240.5;;;-146.1;100.0
45864;BME280;31579;52.354;16.974;2023-04-30T02:59:41;244.1;;;-146.1;100.0
45864;BME280;31579;52.354;16.974;2023-04-30T03:00:45;246.8;;;-146.1;100.0
45864;BME280;31579;52.354;16.974;2023-04-30T03:01:49;250.2;;;-146.1;100.0
45864;BME280;31579;52.354;16.974;2023-04-30T03:02:53;253.3;;;-146.1;100.0
45864;BME280;31579;52.354;16.974;2023-04-30T03:03:57;255.3;;;-146.1;100.0
45864;BME280;31579;52.354;16.974;2023-04-30T03:05:01;257.1;;;-146.1;100.0
45864;BME280;31579;52.354;16.974;2023-04-30T03:06:06;261.1;;;-146.1;100.0
45864;BME280;31579;52.354;16.974;2023-04-30T03:07:10;261.0;;;-146.1;100.0
45864;BME280;31579;52.354;16.974;2023-04-30T03:08:14;261.1;;;-146.1;100.0
45864;BME280;31579;52.354;16.974;2023-04-30T03:09:20;358.3;;;-146.1;100.0
45864;BME280;31579;52.354;16.974;2023-04-30T03:10:29;178.9;;;-146.1;100.0
45864;BME280;31579;52.354;16.974;2023-04-30T03:11:33;205.0;;;-146.1;100.0
45864;BME280;31579;52.354;16.974;2023-04-30T03:12:37;212.8;;;-146.1;100.0
45864;BME280;31579;52.354;16.974;2023-04-30T03:13:41;217.3;;;-146.1;100.0
45864;BME280;31579;52.354;16.974;2023-04-30T03:14:45;218.7;;;-146.1;100.0
45864;BME280;31579;52.354;16.974;2023-04-30T03:15:49;221.0;;;-146.1;100.0
45864;BME280;31579;52.354;16.974;2023-04-30T03:16:53;222.8;;;-146.1;100.0
45864;BME280;31579;52.354;16.974;2023-04-30T03:17:58;225.1;;;-146.1;100.0
45864;BME280;31579;52.354;16.974;2023-04-30T03:19:00;406.8;;;-146.1;100.0
45864;BME280;31579;52.354;16.974;2023-04-30T03:20:05;320.7;;;-146.1;100.0
45864;BME280;31579;52.354;16.974;2023-04-30T03:21:09;304.2;;;-146.1;100.0
45864;BME280;31579;52.354;16.974;2023-04-30T03:22:13;292.9;;;-146.1;100.0
45864;BME280;31579;52.354;16.974;2023-04-30T03:23:17;282.1;;;-146.1;100.0
45864;BME280;31579;52.354;16.974;2023-04-30T03:24:21;275.4;;;-146.1;100.0
45864;BME280;31579;52.354;16.974;2023-04-30T03:25:38;1.1;;;-146.1;100.0
45864;BME280;31579;52.354;16.974;2023-04-30T03:26:42;174.7;;;-146.1;100.0
45864;BME280;31579;52.354;16.974;2023-04-30T03:27:46;53.2;;;-146.1;100.0
45864;BME280;31579;52.354;16.974;2023-04-30T03:28:50;-6.6;;;-146.1;100.0
45864;BME280;31579;52.354;16.974;2023-04-30T03:29:54;-19.3;;;-146.1;100.0
45864;BME280;31579;52.354;16.974;2023-04-30T03:30:58;-7.1;;;-146.1;100.0
45864;BME280;31579;52.354;16.974;2023-04-30T03:32:00;105.4;;;-146.1;100.0
45864;BME280;31579;52.354;16.974;2023-04-30T03:33:05;72.7;;;-146.1;100.0
45864;BME280;31579;52.354;16.974;2023-04-30T03:34:09;82.0;;;-146.1;100.0
45864;BME280;31579;52.354;16.974;2023-04-30T03:35:13;92.2;;;-146.1;100.0
45864;BME280;31579;52.354;16.974;2023-04-30T03:36:17;102.9;;;-146.1;100.0
45864;BME280;31579;52.354;16.974;2023-04-30T03:37:21;112.7;;;-146.1;100.0
45864;BME280;31579;52.354;16.974;2023-04-30T03:38:25;122.0;;;-146.1;100.0
45864;BME280;31579;52.354;16.974;2023-04-30T03:39:29;130.9;;;-146.1;100.0
45864;BME280;31579;52.354;16.974;2023-04-30T03:40:33;138.3;;;-146.1;100.0
45864;BME280;31579;52.354;16.974;2023-04-30T03:41:37;145.2;;;-146.1;100.0
45864;BME280;31579;52.354;16.974;2023-04-30T03:42:41;151.5;;;-146.1;100.0
45864;BME280;31579;52.354;16.974;2023-04-30T03:43:45;156.7;;;-146.1;100.0
45864;BME280;31579;52.354;16.974;2023-04-30T03:44:49;162.3;;;-146.1;100.0
45864;BME280;31579;52.354;16.974;2023-04-30T03:45:53;167.0;;;-146.1;100.0
45864;BME280;31579;52.354;16.974;2023-04-30T03:46:57;172.2;;;-146.1;100.0
45864;BME280;31579;52.354;16.974;2023-04-30T03:48:01;177.6;;;-146.1;100.0
45864;BME280;31579;52.354;16.974;2023-04-30T03:49:05;183.2;;;-146.1;100.0
45864;BME280;31579;52.354;16.974;2023-04-30T03:50:09;189.6;;;-146.1;100.0
45864;BME280;31579;52.354;16.974;2023-04-30T03:51:14;198.4;;;-146.1;100.0
45864;BME280;31579;52.354;16.974;2023-04-30T03:52:18;201.4;;;-146.1;100.0
45864;BME280;31579;52.354;16.974;2023-04-30T03:53:22;205.9;;;-146.1;100.0
45864;BME280;31579;52.354;16.974;2023-04-30T03:54:26;211.1;;;-146.1;100.0
45864;BME280;31579;52.354;16.974;2023-04-30T03:55:31;214.3;;;-146.1;100.0
45864;BME280;31579;52.354;16.974;2023-04-30T03:56:35;143.3;;;-146.1;100.0
45864;BME280;31579;52.354;16.974;2023-04-30T03:57:39;178.7;;;-146.1;100.0
45864;BME280;31579;52.354;16.974;2023-04-30T03:58:43;187.2;;;-146.1;100.0
45864;BME280;31579;52.354;16.974;2023-04-30T03:59:47;194.2;;;-146.1;100.0
45864;BME280;31579;52.354;16.974;2023-04-30T04:00:51;199.0;;;-146.1;100.0
45864;BME280;31579;52.354;16.974;2023-04-30T04:01:55;204.7;;;-146.1;100.0
45864;BME280;31579;52.354;16.974;2023-04-30T04:02:59;208.4;;;-146.1;100.0
45864;BME280;31579;52.354;16.974;2023-04-30T04:04:03;213.3;;;-146.1;100.0
45864;BME280;31579;52.354;16.974;2023-04-30T04:05:07;218.9;;;-146.1;100.0
45864;BME280;31579;52.354;16.974;2023-04-30T04:06:11;222.3;;;-146.1;100.0
45864;BME280;31579;52.354;16.974;2023-04-30T04:07:15;227.9;;;-146.1;100.0
45864;BME280;31579;52.354;16.974;2023-04-30T04:08:19;230.8;;;-146.1;100.0
45864;BME280;31579;52.354;16.974;2023-04-30T04:09:23;235.4;;;-146.1;100.0
45864;BME280;31579;52.354;16.974;2023-04-30T04:10:28;242.2;;;-146.1;100.0
45864;BME280;31579;52.354;16.974;2023-04-30T04:11:32;246.4;;;-146.1;100.0
45864;BME280;31579;52.354;16.974;2023-04-30T04:12:34;416.3;;;-146.1;100.0
45864;BME280;31579;52.354;16.974;2023-04-30T04:13:39;350.2;;;-146.1;100.0
45864;BME280;31579;52.354;16.974;2023-04-30T04:14:43;335.1;;;-146.1;100.0
45864;BME280;31579;52.354;16.974;2023-04-30T04:15:47;326.2;;;-146.1;100.0
45864;BME280;31579;52.354;16.974;2023-04-30T04:16:51;319.3;;;-146.1;100.0
45864;BME280;31579;52.354;16.974;2023-04-30T04:17:55;316.0;;;-146.1;100.0
45864;BME280;31579;52.354;16.974;2023-04-30T04:18:59;314.9;;;-146.1;100.0
45864;BME280;31579;52.354;16.974;2023-04-30T04:20:03;310.1;;;-146.1;100.0
45864;BME280;31579;52.354;16.974;2023-04-30T04:21:07;306.4;;;-146.1;100.0
45864;BME280;31579;52.354;16.974;2023-04-30T04:22:11;305.2;;;-146.1;100.0
45864;BME280;31579;52.354;16.974;2023-04-30T04:23:15;308.6;;;-146.1;100.0
45864;BME280;31579;52.354;16.974;2023-04-30T04:24:19;311.3;;;-146.1;100.0
45864;BME280;31579;52.354;16.974;2023-04-30T04:25:23;320.4;;;-146.1;100.0
45864;BME280;31579;52.354;16.974;2023-04-30T04:26:27;330.8;;;-146.1;100.0
45864;BME280;31579;52.354;16.974;2023-04-30T04:27:31;343.7;;;-146.1;100.0
45864;BME280;31579;52.354;16.974;2023-04-30T04:28:34;438.2;;;-146.1;100.0
45864;BME280;31579;52.354;16.974;2023-04-30T04:29:37;438.8;;;-146.1;100.0
45864;BME280;31579;52.354;16.974;2023-04-30T04:30:48;282.6;;;-146.1;100.0
45864;BME280;31579;52.354;16.974;2023-04-30T04:31:52;381.4;;;-146.1;100.0
45864;BME280;31579;52.354;16.974;2023-04-30T04:32:56;398.8;;;-146.1;100.0
45864;BME280;31579;52.354;16.974;2023-04-30T04:34:01;407.7;;;-146.1;100.0
45864;BME280;31579;52.354;16.974;2023-04-30T04:35:05;414.4;;;-146.1;100.0
45864;BME280;31579;52.354;16.974;2023-04-30T04:36:09;416.6;;;-146.1;100.0
45864;BME280;31579;52.354;16.974;2023-04-30T04:37:13;419.1;;;-146.1;100.0
45864;BME280;31579;52.354;16.974;2023-04-30T04:38:17;418.4;;;-146.1;100.0
45864;BME280;31579;52.354;16.974;2023-04-30T04:39:21;420.1;;;-146.1;100.0
45864;BME280;31579;52.354;16.974;2023-04-30T04:40:25;421.3;;;-146.1;100.0
45864;BME280;31579;52.354;16.974;2023-04-30T04:41:29;418.8;;;-146.1;100.0
45864;BME280;31579;52.354;16.974;2023-04-30T04:42:33;416.3;;;-146.1;100.0
45864;BME280;31579;52.354;16.974;2023-04-30T04:43:37;410.8;;;-146.1;100.0
45864;BME280;31579;52.354;16.974;2023-04-30T04:44:41;403.3;;;-146.1;100.0
45864;BME280;31579;52.354;16.974;2023-04-30T04:45:45;398.2;;;-146.1;100.0
45864;BME280;31579;52.354;16.974;2023-04-30T04:46:49;386.4;;;-146.1;100.0
45864;BME280;31579;52.354;16.974;2023-04-30T04:47:53;377.2;;;-146.1;100.0
45864;BME280;31579;52.354;16.974;2023-04-30T04:48:57;368.9;;;-146.1;100.0
45864;BME280;31579;52.354;16.974;2023-04-30T04:50:01;361.1;;;-146.1;100.0
45864;BME280;31579;52.354;16.974;2023-04-30T04:51:05;355.7;;;-146.1;100.0
45864;BME280;31579;52.354;16.974;2023-04-30T04:52:09;340.2;;;-146.1;100.0
45864;BME280;31579;52.354;16.974;2023-04-30T04:53:13;330.6;;;-146.1;100.0
45864;BME280;31579;52.354;16.974;2023-04-30T04:54:17;316.2;;;-146.1;100.0
45864;BME280;31579;52.354;16.974;2023-04-30T04:55:21;301.2;;;-146.1;100.0
45864;BME280;31579;52.354;16.974;2023-04-30T04:56:25;287.9;;;-146.1;100.0
45864;BME280;31579;52.354;16.974;2023-04-30T04:57:29;279.4;;;-146.1;100.0
45864;BME280;31579;52.354;16.974;2023-04-30T04:58:33;275.4;;;-146.1;100.0
45864;BME280;31579;52.354;16.974;2023-04-30T04:59:37;264.0;;;-146.1;100.0
45864;BME280;31579;52.354;16.974;2023-04-30T05:00:41;268.7;;;-146.1;100.0
45864;BME280;31579;52.354;16.974;2023-04-30T05:01:45;295.0;;;-146.1;100.0
45864;BME280;31579;52.354;16.974;2023-04-30T05:02:49;470.1;;;-146.1;100.0
45864;BME280;31579;52.354;16.974;2023-04-30T05:03:53;1006.5;;;-146.1;100.0
45864;BME280;31579;52.354;16.974;2023-04-30T05:04:57;1078.3;;;-146.1;100.0
45864;BME280;31579;52.354;16.974;2023-04-30T05:06:03;1133.1;;;-146.1;100.0
45864;BME280;31579;52.354;16.974;2023-04-30T05:07:05;1163.6;;;-146.1;100.0
45864;BME280;31579;52.354;16.974;2023-04-30T05:08:09;1174.4;;;-146.1;100.0
45864;BME280;31579;52.354;16.974;2023-04-30T05:09:13;1173.0;;;-146.1;100.0
45864;BME280;31579;52.354;16.974;2023-04-30T05:10:17;1170.8;;;-146.1;100.0
45864;BME280;31579;52.354;16.974;2023-04-30T05:11:21;1166.6;;;-146.1;100.0
45864;BME280;31579;52.354;16.974;2023-04-30T05:12:25;1161.4;;;-146.1;100.0
45864;BME280;31579;52.354;16.974;2023-04-30T05:13:29;1160.7;;;-146.1;100.0
45864;BME280;31579;52.354;16.974;2023-04-30T05:14:33;1157.5;;;-146.1;100.0
45864;BME280;31579;52.354;16.974;2023-04-30T05:15:37;1150.4;;;-146.1;100.0
45864;BME280;31579;52.354;16.974;2023-04-30T05:16:41;1147.8;;;-146.1;100.0
45864;BME280;31579;52.354;16.974;2023-04-30T05:17:43;1154.4;;;-146.1;100.0
45864;BME280;31579;52.354;16.974;2023-04-30T05:18:48;1144.2;;;-146.1;100.0
45864;BME280;31579;52.354;16.974;2023-04-30T05:19:52;1136.4;;;-146.1;100.0
45864;BME280;31579;52.354;16.974;2023-04-30T05:20:56;1136.6;;;-146.1;100.0
45864;BME280;31579;52.354;16.974;2023-04-30T05:22:00;1130.9;;;-146.1;100.0
45864;BME280;31579;52.354;16.974;2023-04-30T05:23:03;1137.8;;;-146.1;100.0
45864;BME280;31579;52.354;16.974;2023-04-30T05:24:07;1130.8;;;-146.1;100.0
45864;BME280;31579;52.354;16.974;2023-04-30T05:25:11;1125.9;;;-146.1;100.0
45864;BME280;31579;52.354;16.974;2023-04-30T05:26:15;1118.9;;;-146.1;100.0
45864;BME280;31579;52.354;16.974;2023-04-30T05:27:19;1119.9;;;-146.1;100.0
45864;BME280;31579;52.354;16.974;2023-04-30T05:28:23;1096.9;;;-146.1;100.0
45864;BME280;31579;52.354;16.974;2023-04-30T05:29:27;1085.0;;;-146.1;100.0
45864;BME280;31579;52.354;16.974;2023-04-30T05:30:31;1083.5;;;-146.1;100.0
45864;BME280;31579;52.354;16.974;2023-04-30T05:31:35;1082.2;;;-146.1;100.0
45864;BME280;31579;52.354;16.974;2023-04-30T05:32:39;1070.9;;;-146.1;100.0
45864;BME280;31579;52.354;16.974;2023-04-30T05:33:44;1063.2;;;-146.1;100.0
45864;BME280;31579;52.354;16.974;2023-04-30T05:34:48;1071.4;;;-146.1;100.0
45864;BME280;31579;52.354;16.974;2023-04-30T05:35:52;1061.1;;;-146.1;100.0
45864;BME280;31579;52.354;16.974;2023-04-30T05:36:56;1037.7;;;-146.1;100.0
45864;BME280;31579;52.354;16.974;2023-04-30T05:38:01;1048.7;;;-146.1;100.0
45864;BME280;31579;52.354;16.974;2023-04-30T05:39:05;1038.3;;;-146.1;100.0
45864;BME280;31579;52.354;16.974;2023-04-30T05:40:09;1043.4;;;-146.1;100.0
45864;BME280;31579;52.354;16.974;2023-04-30T05:41:13;1031.2;;;-146.1;100.0
45864;BME280;31579;52.354;16.974;2023-04-30T05:42:17;1040.6;;;-146.1;100.0
45864;BME280;31579;52.354;16.974;2023-04-30T05:43:21;1039.7;;;-146.1;100.0
45864;BME280;31579;52.354;16.974;2023-04-30T05:44:26;1012.1;;;-146.1;100.0
45864;BME280;31579;52.354;16.974;2023-04-30T05:45:30;995.0;;;-146.1;100.0
45864;BME280;31579;52.354;16.974;2023-04-30T05:46:34;984.8;;;-146.1;100.0
45864;BME280;31579;52.354;16.974;2023-04-30T05:47:38;968.9;;;-146.1;100.0
45864;BME280;31579;52.354;16.974;2023-04-30T05:48:44;939.7;;;-146.1;100.0
45864;BME280;31579;52.354;16.974;2023-04-30T05:49:48;951.9;;;-146.1;100.0
45864;BME280;31579;52.354;16.974;2023-04-30T05:50:52;919.7;;;-146.1;100.0
45864;BME280;31579;52.354;16.974;2023-04-30T05:51:56;894.4;;;-146.1;100.0
45864;BME280;31579;52.354;16.974;2023-04-30T05:53:00;945.4;;;-146.1;100.0
45864;BME280;31579;52.354;16.974;2023-04-30T05:54:03;933.7;;;-146.1;100.0
45864;BME280;31579;52.354;16.974;2023-04-30T05:55:07;916.5;;;-146.1;100.0
45864;BME280;31579;52.354;16.974;2023-04-30T05:56:11;934.2;;;-146.1;100.0
45864;BME280;31579;52.354;16.974;2023-04-30T05:57:15;916.8;;;-146.1;100.0
45864;BME280;31579;52.354;16.974;2023-04-30T05:58:19;889.7;;;-146.1;100.0
45864;BME280;31579;52.354;16.974;2023-04-30T05:59:23;921.6;;;-146.1;100.0
45864;BME280;31579;52.354;16.974;2023-04-30T06:00:27;914.1;;;-146.1;100.0
45864;BME280;31579;52.354;16.974;2023-04-30T06:01:31;922.3;;;-146.1;100.0
45864;BME280;31579;52.354;16.974;2023-04-30T06:02:35;939.3;;;-146.1;100.0
45864;BME280;31579;52.354;16.974;2023-04-30T06:03:39;915.5;;;-146.1;100.0